Time;durP1;ratioP1;P1;durP2;ratioP2;P2;SDS_P1;SDS_P2;PMS_P1;PMS_P2;Temp;Humidity;BMP_temperature;BMP_pressure;BME280_temperature;BME280_humidity;BME280_pressure;Samples;Min_cycle;Max_cycle;Signal;HPM_P1;HPM_P2
2022/09/05 00:02:40;;;;;;;11.57;8.30;;;;;;;20.22;71.06;95827.19;5093413;28;20358;-87
2022/09/05 00:05:38;;;;;;;11.68;8.65;;;;;;;20.20;70.72;95826.75;5110695;28;20039;-86
2022/09/05 00:08:26;;;;;;;16.90;8.38;;;;;;;20.04;70.21;95831.81;5071955;28;20397;-86
2022/09/05 00:11:21;;;;;;;13.90;9.35;;;;;;;20.01;70.91;95828.97;5111356;28;20027;-86
2022/09/05 00:14:19;;;;;;;12.00;9.52;;;;;;;19.53;71.08;95756.47;5097438;28;20043;-86
2022/09/05 00:17:08;;;;;;;15.10;9.73;;;;;;;19.48;71.71;95743.94;5110939;28;20053;-85
2022/09/05 00:19:40;;;;;;;18.58;10.25;;;;;;;19.93;71.20;95825.16;5101684;28;20513;-86
2022/09/05 00:22:46;;;;;;;12.65;9.98;;;;;;;19.90;72.33;95828.50;5106678;28;20035;-86
2022/09/05 00:25:49;;;;;;;14.27;8.93;;;;;;;19.48;70.75;95761.97;5111118;28;20047;-86
2022/09/05 00:28:37;;;;;;;13.32;9.80;;;;;;;19.71;70.89;95827.19;5112196;28;20427;-86
2022/09/05 00:31:18;;;;;;;12.45;9.45;;;;;;;19.58;71.40;95792.06;5070571;28;20151;-85
2022/09/05 00:34:10;;;;;;;13.57;9.75;;;;;;;19.87;70.70;95826.44;5110573;28;20136;-85
2022/09/05 00:36:48;;;;;;;14.68;9.73;;;;;;;19.62;71.00;95798.38;5110563;28;20054;-85
2022/09/05 00:39:31;;;;;;;11.40;9.50;;;;;;;19.69;71.11;95789.03;5111049;28;20512;-86
2022/09/05 00:42:07;;;;;;;12.88;8.48;;;;;;;19.41;70.56;95748.97;5110860;28;20039;-86
2022/09/05 00:44:36;;;;;;;12.18;9.45;;;;;;;19.70;70.81;95801.41;5111523;28;20468;-86
2022/09/05 00:47:10;;;;;;;10.25;8.95;;;;;;;19.96;70.88;95832.63;5110623;28;20024;-86
2022/09/05 00:49:48;;;;;;;12.75;9.55;;;;;;;19.70;71.26;95809.47;5110271;28;20024;-87
2022/09/05 00:52:23;;;;;;;10.73;8.85;;;;;;;19.69;70.24;95799.81;5111866;28;20438;-88
2022/09/05 00:55:24;;;;;;;10.10;8.57;;;;;;;20.01;70.01;95845.13;5110593;28;20130;-85
2022/09/05 00:58:04;;;;;;;14.65;8.73;;;;;;;20.02;69.75;95834.03;5113647;28;20509;-85
2022/09/05 01:00:54;;;;;;;13.63;8.77;;;;;;;19.96;70.39;95835.31;5116646;28;20078;-86
2022/09/05 01:03:25;;;;;;;10.18;8.00;;;;;;;20.02;69.68;95841.31;5117873;28;20034;-85
2022/09/05 01:06:18;;;;;;;13.07;8.88;;;;;;;19.73;69.32;95847.31;5122974;28;20032;-85
2022/09/05 01:09:17;;;;;;;9.57;7.78;;;;;;;19.91;68.89;95848.13;5132929;28;20043;-85
2022/09/05 01:12:08;;;;;;;11.32;8.32;;;;;;;19.95;69.89;95843.69;5132503;28;20512;-86
2022/09/05 01:14:55;;;;;;;12.27;8.65;;;;;;;19.96;69.89;95851.47;5134708;28;20015;-86
2022/09/05 01:17:51;;;;;;;16.67;8.13;;;;;;;20.01;69.62;95848.59;5131656;28;20043;-86
2022/09/05 01:21:01;;;;;;;15.52;8.60;;;;;;;19.99;67.94;95844.63;5122020;28;20139;-86
2022/09/05 01:23:42;;;;;;;11.18;8.13;;;;;;;19.99;68.37;95842.72;5012729;28;20031;-86
2022/09/05 01:26:20;;;;;;;11.02;8.27;;;;;;;19.37;69.24;95749.94;5104006;28;20050;-86
2022/09/05 01:28:55;;;;;;;11.30;7.75;;;;;;;19.06;67.95;95712.41;5115403;28;20034;-86
2022/09/05 01:31:43;;;;;;;12.82;8.50;;;;;;;19.56;68.92;95780.03;5115305;28;20035;-86
2022/09/05 01:34:22;;;;;;;10.73;7.55;;;;;;;19.98;67.68;95843.06;5114605;28;20035;-86
2022/09/05 01:37:04;;;;;;;12.23;7.10;;;;;;;19.93;67.49;95837.81;5114871;28;20130;-86
2022/09/05 01:40:26;;;;;;;8.52;6.47;;;;;;;19.93;68.74;95835.94;5114230;28;20116;-87
2022/09/05 01:43:20;;;;;;;11.20;6.70;;;;;;;19.88;67.10;95830.72;5017009;28;20037;-87
2022/09/05 01:45:56;;;;;;;9.27;6.07;;;;;;;19.96;66.93;95835.31;5015450;28;20049;-87
2022/09/05 01:48:30;;;;;;;8.98;5.90;;;;;;;19.89;67.09;95837.69;5115768;27;20039;-87
2022/09/05 01:51:14;;;;;;;9.63;5.97;;;;;;;19.89;67.89;95832.28;5113974;28;20841;-86
2022/09/05 01:54:18;;;;;;;9.93;6.72;;;;;;;19.80;67.92;95834.19;5114038;28;20138;-86
2022/09/05 01:57:14;;;;;;;8.00;7.10;;;;;;;19.67;67.12;95834.34;5114226;28;20027;-87
2022/09/05 01:59:50;;;;;;;10.95;7.43;;;;;;;19.28;67.77;95782.19;5103316;28;20032;-86
2022/09/05 02:02:54;;;;;;;12.45;7.07;;;;;;;19.77;67.16;95834.81;5135150;28;20087;-86
2022/09/05 02:05:31;;;;;;;8.10;6.30;;;;;;;19.70;66.64;95839.88;5137199;28;20092;-85
2022/09/05 02:08:34;;;;;;;14.70;8.23;;;;;;;19.86;67.73;95840.19;5136652;28;20047;-87
2022/09/05 02:11:40;;;;;;;11.55;7.47;;;;;;;19.77;67.63;95837.50;5137656;28;20031;-86
2022/09/05 02:14:19;;;;;;;11.07;6.88;;;;;;;19.14;67.98;95765.41;5137269;28;20039;-87
2022/09/05 02:16:44;;;;;;;9.18;7.50;;;;;;;19.63;68.23;95837.66;5137827;28;20039;-86
2022/09/05 02:19:14;;;;;;;14.27;8.02;;;;;;;19.81;68.83;95843.84;5137286;28;20034;-86
2022/09/05 02:21:45;;;;;;;13.45;7.68;;;;;;;19.28;67.98;95750.72;5137692;28;20095;-87
2022/09/05 02:24:17;;;;;;;11.13;7.78;;;;;;;17.66;67.00;95520.84;5133236;28;20028;-88
2022/09/05 02:27:23;;;;;;;10.05;7.15;;;;;;;19.64;67.09;95825.00;5130863;28;20043;-88
2022/09/05 02:30:30;;;;;;;15.40;6.95;;;;;;;19.79;66.99;95832.59;5122361;28;20032;-88
2022/09/05 02:32:56;;;;;;;9.15;6.10;;;;;;;19.68;65.60;95834.03;5110200;28;20065;-87
2022/09/05 02:36:03;;;;;;;10.18;6.32;;;;;;;19.52;65.70;95838.28;5115028;28;20038;-88
2022/09/05 02:38:41;;;;;;;6.82;5.50;;;;;;;19.34;66.13;95802.44;5034481;28;20031;-88
2022/09/05 02:41:25;;;;;;;7.20;5.82;;;;;;;19.59;67.03;95842.09;5115460;28;20048;-88
2022/09/05 02:44:11;;;;;;;8.35;5.53;;;;;;;19.20;66.36;95791.03;5122501;28;20036;-88
2022/09/05 02:46:49;;;;;;;7.40;5.72;;;;;;;19.07;65.98;95789.25;5115698;28;20570;-88
2022/09/05 02:49:27;;;;;;;8.30;5.55;;;;;;;19.43;66.04;95848.19;5115014;28;20570;-88
2022/09/05 02:52:08;;;;;;;8.50;5.60;;;;;;;19.14;65.74;95784.22;5115176;28;20478;-88
2022/09/05 02:54:41;;;;;;;7.60;4.78;;;;;;;19.59;65.70;95852.06;5114004;28;20028;-88
2022/09/05 02:57:24;;;;;;;8.20;5.13;;;;;;;19.61;65.85;95845.22;5114416;28;20039;-88
2022/09/05 03:00:06;;;;;;;8.10;4.55;;;;;;;19.55;66.25;95845.69;5114570;28;20031;-88
2022/09/05 03:02:59;;;;;;;7.78;4.55;;;;;;;19.56;65.30;95850.78;5114378;28;20077;-88
2022/09/05 03:06:03;;;;;;;7.47;4.72;;;;;;;19.01;65.46;95767.09;5106974;28;20488;-88
2022/09/05 03:08:57;;;;;;;6.55;4.63;;;;;;;18.35;65.15;95672.19;5114839;28;20052;-88
2022/09/05 03:11:53;;;;;;;6.03;4.97;;;;;;;19.51;64.57;95860.91;5114806;28;20110;-88
2022/09/05 03:14:34;;;;;;;9.18;4.95;;;;;;;19.39;63.98;95857.97;5113737;28;20038;-88
2022/09/05 03:17:08;;;;;;;9.40;5.03;;;;;;;19.43;65.43;95859.75;5113654;28;20108;-88
2022/09/05 03:19:46;;;;;;;8.45;4.78;;;;;;;19.43;65.47;95854.38;5112864;28;20034;-88
2022/09/05 03:22:59;;;;;;;8.23;4.65;;;;;;;19.53;65.57;95861.38;5114335;28;20024;-88
2022/09/05 03:25:50;;;;;;;7.95;4.28;;;;;;;19.60;65.06;95859.03;5091149;28;20035;-88
2022/09/05 03:28:52;;;;;;;7.10;5.30;;;;;;;19.52;65.63;95865.19;5114862;28;20115;-88
2022/09/05 03:31:20;;;;;;;8.65;5.05;;;;;;;19.39;65.14;95864.16;5114622;28;20095;-87
2022/09/05 03:34:16;;;;;;;8.30;5.38;;;;;;;19.54;66.36;95871.00;5112622;28;20024;-87
2022/09/05 03:37:06;;;;;;;7.80;4.95;;;;;;;19.47;65.66;95874.16;5112466;28;20030;-88
2022/09/05 03:39:35;;;;;;;6.95;4.80;;;;;;;19.56;65.62;95874.19;5113702;28;20410;-87
2022/09/05 03:42:22;;;;;;;10.55;4.65;;;;;;;19.55;66.03;95868.00;5112623;28;20031;-87
2022/09/05 03:44:53;;;;;;;9.07;5.50;;;;;;;19.61;66.21;95872.13;5114213;28;20105;-88
2022/09/05 03:47:44;;;;;;;8.20;4.97;;;;;;;19.67;65.83;95880.88;5112837;28;20545;-87
2022/09/05 03:50:27;;;;;;;7.35;4.97;;;;;;;19.65;65.50;95880.38;5074026;28;20038;-88
2022/09/05 03:53:26;;;;;;;7.60;4.72;;;;;;;19.64;65.43;95890.34;5113225;28;20118;-87
2022/09/05 03:56:10;;;;;;;11.48;5.65;;;;;;;19.63;65.76;95890.66;5114156;28;20024;-87
2022/09/05 03:58:54;;;;;;;8.20;5.03;;;;;;;19.50;64.52;95887.00;5112171;28;20027;-87
2022/09/05 04:01:34;;;;;;;9.15;5.10;;;;;;;19.50;64.72;95891.59;5112349;28;20038;-87
2022/09/05 04:04:06;;;;;;;14.18;6.15;;;;;;;18.31;64.14;95719.53;5112432;28;20031;-87
2022/09/05 04:06:46;;;;;;;9.35;5.65;;;;;;;19.06;65.75;95861.03;5105301;28;20201;-88
2022/09/05 04:09:50;;;;;;;8.18;6.07;;;;;;;19.30;65.54;95905.59;5108581;28;20050;-88
2022/09/05 04:12:21;;;;;;;8.05;5.13;;;;;;;19.22;65.14;95894.47;5073710;28;20107;-88
2022/09/05 04:14:50;;;;;;;12.30;6.30;;;;;;;18.25;65.52;95747.63;5114147;28;20038;-88
2022/09/05 04:17:44;;;;;;;13.65;6.10;;;;;;;19.38;66.08;95905.59;5112401;28;20727;-88
2022/09/05 04:20:16;;;;;;;11.77;5.97;;;;;;;18.63;65.44;95787.50;5112510;28;20032;-88
2022/09/05 04:23:06;;;;;;;8.45;5.93;;;;;;;19.40;65.48;95916.03;5112242;28;20490;-88
2022/09/05 04:25:47;;;;;;;11.88;6.40;;;;;;;19.38;66.08;95921.72;5112436;28;20027;-87
2022/09/05 04:28:50;;;;;;;9.33;6.47;;;;;;;18.99;66.19;95862.59;5112212;28;20038;-87
2022/09/05 04:31:31;;;;;;;7.97;6.85;;;;;;;19.10;66.06;95869.28;5112320;28;20273;-87
2022/09/05 04:34:24;;;;;;;9.70;6.28;;;;;;;19.47;65.71;95927.97;5113382;28;20424;-87
2022/09/05 04:37:05;;;;;;;10.40;5.65;;;;;;;18.74;65.48;95821.06;5112953;28;20051;-87
2022/09/05 04:39:32;;;;;;;7.40;6.32;;;;;;;19.37;65.62;95938.19;5111225;28;20020;-87
2022/09/05 04:42:03;;;;;;;16.48;6.20;;;;;;;19.20;65.82;95939.72;5111653;28;20078;-87
2022/09/05 04:44:44;;;;;;;;;;;;;;;19.25;65.42;95944.16;5112155;28;20036;-87
2022/09/05 04:47:19;;;;;;;8.02;6.65;;;;;;;17.41;65.21;95650.16;5111673;28;20010;-87
2022/09/05 04:49:56;;;;;;;12.38;7.30;;;;;;;17.58;64.67;95680.59;5111633;28;20027;-87
2022/09/05 04:52:48;;;;;;;8.30;7.00;;;;;;;19.25;67.00;95954.91;5111350;28;20036;-87
2022/09/05 04:55:18;;;;;;;13.00;7.75;;;;;;;18.82;66.49;95868.69;5111589;28;20076;-87
2022/09/05 04:57:59;;;;;;;13.70;6.72;;;;;;;19.11;65.59;95917.34;5109599;28;20034;-87
2022/09/05 05:01:10;;;;;;;15.20;6.97;;;;;;;19.41;66.99;95961.47;5093791;28;20032;-87
2022/09/05 05:03:36;;;;;;;16.20;6.80;;;;;;;18.89;66.22;95874.41;5087438;28;20102;-87
2022/09/05 05:06:06;;;;;;;9.57;6.60;;;;;;;18.49;66.19;95806.34;5092085;28;20043;-87
2022/09/05 05:08:52;;;;;;;11.20;7.03;;;;;;;17.89;66.34;95707.47;5092539;28;20114;-87
2022/09/05 05:11:31;;;;;;;9.88;6.68;;;;;;;18.24;65.54;95769.41;5064717;28;20039;-87
2022/09/05 05:14:23;;;;;;;7.85;6.45;;;;;;;18.57;65.38;95802.16;5065842;28;20116;-86
2022/09/05 05:16:58;;;;;;;7.28;6.53;;;;;;;19.35;65.43;95916.19;5055454;28;20077;-87
2022/09/05 05:19:40;;;;;;;9.88;6.28;;;;;;;19.77;64.95;95976.66;5070094;28;20044;-87
2022/09/05 05:22:12;;;;;;;12.50;6.70;;;;;;;19.42;65.41;95919.22;5077857;28;20115;-86
2022/09/05 05:24:47;;;;;;;9.77;7.00;;;;;;;18.34;65.30;95740.41;5079792;28;20032;-86
2022/09/05 05:28:04;;;;;;;;;;;;;;;;;;;;;
2022/09/05 05:30:32;;;;;;;9.77;6.30;;;;;;;19.15;64.78;95874.50;5085060;28;20115;-86
2022/09/05 05:33:09;;;;;;;16.17;7.55;;;;;;;19.21;64.87;95884.81;5074619;28;20418;-86
2022/09/05 05:35:35;;;;;;;13.93;7.35;;;;;;;19.86;64.30;95977.47;5066472;28;20035;-87
2022/09/05 05:38:13;;;;;;;10.40;6.60;;;;;;;20.01;64.55;96001.25;5063525;28;20032;-86
2022/09/05 05:40:45;;;;;;;10.88;6.70;;;;;;;19.79;64.23;95944.84;5055511;28;20106;-86
2022/09/05 05:43:26;;;;;;;12.25;6.55;;;;;;;19.24;63.03;95862.69;5067457;28;20039;-86
2022/09/05 05:46:00;;;;;;;11.35;6.43;;;;;;;20.06;63.55;95984.97;5063026;28;20043;-86
2022/09/05 05:48:29;;;;;;;10.88;7.22;;;;;;;20.13;63.38;96000.69;5081625;28;20470;-87
2022/09/05 05:51:22;;;;;;;6.68;5.45;;;;;;;20.05;62.90;95999.56;5072259;28;20052;-87
2022/09/05 05:54:17;;;;;;;11.40;6.88;;;;;;;20.14;63.25;95999.56;5071366;28;20039;-87
2022/09/05 05:56:49;;;;;;;7.30;6.60;;;;;;;20.19;62.52;96000.22;5058772;28;20035;-86
2022/09/05 05:59:53;;;;;;;12.48;6.55;;;;;;;19.92;62.66;95954.69;5067881;28;20193;-87
2022/09/05 06:02:40;;;;;;;13.45;7.38;;;;;;;20.08;63.31;95995.41;5084944;28;20421;-87
2022/09/05 06:05:23;;;;;;;12.27;6.85;;;;;;;19.69;62.32;95916.31;5071749;28;20036;-87
2022/09/05 06:07:58;;;;;;;9.32;6.43;;;;;;;20.27;61.04;96001.31;5054650;28;20057;-87
2022/09/05 06:10:41;;;;;;;15.90;6.95;;;;;;;20.26;60.85;95992.47;5066443;28;20146;-87
2022/09/05 06:13:29;;;;;;;9.48;6.65;;;;;;;20.30;60.90;95998.00;5069681;28;20709;-86
2022/09/05 06:16:01;;;;;;;9.68;6.38;;;;;;;20.35;61.33;96005.97;5070250;28;20070;-86
2022/09/05 06:18:50;;;;;;;11.88;6.60;;;;;;;20.36;61.49;96000.28;5066878;28;20494;-86
2022/09/05 06:21:53;;;;;;;12.40;6.80;;;;;;;20.38;60.94;95995.34;5055623;28;20526;-86
2022/09/05 06:24:25;;;;;;;9.82;6.22;;;;;;;20.29;61.23;96002.56;5071622;28;20032;-86
2022/09/05 06:26:50;;;;;;;8.90;6.38;;;;;;;20.34;60.64;96002.47;5052234;28;20028;-87
2022/09/05 06:29:47;;;;;;;13.80;5.82;;;;;;;17.98;61.47;95654.66;5053149;28;20133;-87
2022/09/05 06:32:24;;;;;;;9.45;6.15;;;;;;;20.31;60.63;96016.53;5063181;28;20032;-86
2022/09/05 06:35:31;;;;;;;10.07;6.15;;;;;;;20.13;60.55;95987.22;5066484;28;20046;-87
2022/09/05 06:38:25;;;;;;;15.32;6.63;;;;;;;20.36;60.55;96021.03;5072602;28;20482;-87
2022/09/05 06:41:14;;;;;;;9.32;6.28;;;;;;;19.86;59.92;95931.72;5066077;28;20120;-88
2022/09/05 06:44:18;;;;;;;13.90;7.32;;;;;;;20.51;60.12;96023.25;5083665;28;20024;-87
2022/09/05 06:46:48;;;;;;;8.25;6.32;;;;;;;20.31;59.92;96013.03;5069969;28;20062;-85
2022/09/05 06:49:18;;;;;;;9.90;6.07;;;;;;;20.51;60.19;96031.34;5056827;28;20111;-87
2022/09/05 06:52:02;;;;;;;11.38;6.53;;;;;;;20.48;58.95;96029.28;5065631;28;20131;-85
2022/09/05 06:54:52;;;;;;;11.48;6.75;;;;;;;20.04;58.50;95946.81;5069473;28;20032;-85
2022/09/05 06:57:29;;;;;;;14.45;6.18;;;;;;;20.36;57.76;96026.41;5064120;28;20028;-85
2022/09/05 07:00:22;;;;;;;7.95;5.30;;;;;;;20.53;58.37;96036.41;5069310;28;20188;-86
2022/09/05 07:03:22;;;;;;;7.20;5.32;;;;;;;20.65;58.07;96033.88;5069130;28;20886;-86
2022/09/05 07:06:15;;;;;;;8.63;5.00;;;;;;;20.44;58.78;95982.53;5074218;28;20454;-86
2022/09/05 07:08:52;;;;;;;6.65;4.95;;;;;;;20.59;58.61;96000.91;5053267;28;20057;-86
2022/09/05 07:12:04;;;;;;;6.65;3.95;;;;;;;20.78;57.87;96027.53;5087097;28;20094;-86
2022/09/05 07:15:10;;;;;;;9.57;5.30;;;;;;;20.62;56.68;95996.78;5014846;28;20134;-86
2022/09/05 07:17:47;;;;;;;8.68;4.97;;;;;;;20.20;55.73;95941.75;5051901;28;20036;-87
2022/09/05 07:20:23;;;;;;;11.02;5.13;;;;;;;20.73;55.97;96025.00;5088144;28;20510;-86
2022/09/05 07:22:52;;;;;;;18.17;5.57;;;;;;;20.78;56.42;96022.94;5069690;28;20028;-86
2022/09/05 07:25:22;;;;;;;8.82;4.05;;;;;;;20.83;56.13;96021.97;5063530;28;20108;-86
2022/09/05 07:27:58;;;;;;;9.70;5.28;;;;;;;20.82;55.56;96017.72;5067412;28;20040;-85
2022/09/05 07:30:25;;;;;;;7.90;4.68;;;;;;;20.61;55.35;95979.03;5048152;28;20037;-86
2022/09/05 07:32:53;;;;;;;9.25;4.88;;;;;;;20.29;55.58;95919.06;5084811;28;20024;-85
2022/09/05 07:35:31;;;;;;;10.32;4.30;;;;;;;19.74;54.67;95865.06;5081886;28;20139;-85
2022/09/05 07:38:22;;;;;;;10.00;4.40;;;;;;;20.63;54.42;96012.63;5071376;28;20033;-87
2022/09/05 07:40:57;;;;;;;10.50;4.83;;;;;;;20.73;54.24;96009.63;5086698;28;20101;-87
2022/09/05 07:43:29;;;;;;;6.43;4.53;;;;;;;19.91;54.14;95896.59;5066609;28;20039;-86
2022/09/05 07:46:00;;;;;;;7.68;3.95;;;;;;;20.67;53.53;96013.56;5066196;28;20047;-86
2022/09/05 07:48:27;;;;;;;;;;;;;;;20.61;55.12;96008.66;5067862;28;20031;-85
2022/09/05 07:51:00;;;;;;;6.20;3.80;;;;;;;20.07;55.11;95935.38;5088748;28;19977;-85
2022/09/05 07:53:26;;;;;;;5.35;4.05;;;;;;;20.05;53.43;95943.00;5064202;28;20155;-85
2022/09/05 07:55:57;;;;;;;7.47;4.55;;;;;;;19.74;53.92;95872.34;5068884;28;20039;-86
2022/09/05 07:58:51;;;;;;;10.93;4.35;;;;;;;20.47;53.39;95994.56;5064985;28;20036;-86
2022/09/05 08:01:21;;;;;;;5.68;4.18;;;;;;;18.87;53.46;95740.34;5064891;28;20055;-86
2022/09/05 08:03:54;;;;;;;5.55;3.78;;;;;;;20.20;52.82;95979.47;5071171;28;20036;-85
2022/09/05 08:06:24;;;;;;;10.98;4.15;;;;;;;20.60;52.65;95990.91;5063233;28;20028;-85
2022/09/05 08:08:54;;;;;;;5.50;3.90;;;;;;;20.77;53.41;96015.16;5068063;28;20052;-86
2022/09/05 08:11:23;;;;;;;8.77;4.75;;;;;;;20.97;53.21;96016.44;5071822;28;20055;-85
2022/09/05 08:13:56;;;;;;;5.00;3.88;;;;;;;21.06;51.96;96006.41;5060896;28;20494;-85
2022/09/05 08:16:24;;;;;;;8.00;3.60;;;;;;;21.00;52.13;96013.09;5088136;28;20055;-85
2022/09/05 08:18:57;;;;;;;8.10;4.03;;;;;;;19.05;52.41;95697.38;5068862;28;21169;-85
2022/09/05 08:21:33;;;;;;;6.45;4.00;;;;;;;21.08;52.40;96023.88;5070521;28;20504;-86
2022/09/05 08:24:08;;;;;;;4.70;3.75;;;;;;;21.29;52.32;96020.53;5069135;28;20032;-86
2022/09/05 08:26:39;;;;;;;4.80;3.30;;;;;;;20.39;50.61;95877.59;5082158;28;20035;-86
2022/09/05 08:29:09;;;;;;;4.93;3.15;;;;;;;21.22;50.33;96018.31;5085121;28;20039;-86
2022/09/05 08:32:01;;;;;;;5.27;3.50;;;;;;;21.13;50.33;95969.00;5084587;28;20551;-85
2022/09/05 08:34:53;;;;;;;6.63;3.70;;;;;;;21.05;50.99;95948.22;5071466;28;20037;-85
2022/09/05 08:37:25;;;;;;;8.93;4.13;;;;;;;21.30;49.66;96011.31;5083076;28;20063;-85
2022/09/05 08:40:07;;;;;;;8.18;4.15;;;;;;;20.87;50.02;95963.63;5068977;28;20052;-85
2022/09/05 08:42:38;;;;;;;8.15;4.28;;;;;;;21.04;49.69;95989.78;5076844;28;20425;-85
2022/09/05 08:45:23;;;;;;;6.35;3.45;;;;;;;21.17;49.36;96005.81;5082219;28;20032;-85
2022/09/05 08:47:57;;;;;;;5.95;4.00;;;;;;;21.06;49.45;96009.09;5079517;28;20705;-85
2022/09/05 08:50:47;;;;;;;7.25;4.28;;;;;;;21.07;49.44;96005.31;5074751;28;20054;-86
2022/09/05 08:53:33;;;;;;;5.50;3.80;;;;;;;21.02;49.84;96006.28;5058670;28;20064;-86
2022/09/05 08:56:20;;;;;;;8.95;4.38;;;;;;;20.39;49.84;95891.88;5065518;28;20110;-85
2022/09/05 08:59:04;;;;;;;8.00;2.97;;;;;;;20.50;48.24;95948.13;5061103;28;20032;-85
2022/09/05 09:01:37;;;;;;;4.68;3.38;;;;;;;20.87;48.65;96011.38;5063953;28;20464;-87
2022/09/05 09:04:09;;;;;;;9.10;4.68;;;;;;;21.03;48.44;96013.25;5094801;28;20041;-85
2022/09/05 09:07:06;;;;;;;4.75;3.88;;;;;;;21.26;48.59;96010.38;5069172;28;20091;-85
2022/09/05 09:09:39;;;;;;;4.60;3.42;;;;;;;19.97;48.23;95820.75;5083849;28;20040;-85
2022/09/05 09:12:35;;;;;;;4.40;3.70;;;;;;;20.91;48.37;95932.22;5097661;27;20175;-85
2022/09/05 09:15:23;;;;;;;5.97;3.42;;;;;;;21.24;48.74;95964.06;5078870;28;20154;-85
2022/09/05 09:17:50;;;;;;;7.85;3.78;;;;;;;21.56;48.55;96015.53;5089154;28;20457;-86
2022/09/05 09:20:44;;;;;;;5.57;3.60;;;;;;;21.43;48.62;95975.28;5090071;28;20070;-86
2022/09/05 09:23:22;;;;;;;8.13;3.60;;;;;;;21.38;48.00;95999.72;5090316;28;20070;-86
2022/09/05 09:26:16;;;;;;;6.38;3.22;;;;;;;21.35;48.13;95998.47;5111860;27;20039;-86
2022/09/05 09:28:51;;;;;;;4.57;3.40;;;;;;;21.11;49.00;96014.34;5082828;28;20137;-86
2022/09/05 09:31:36;;;;;;;6.93;4.07;;;;;;;21.02;48.56;96008.19;5086440;28;21153;-86
2022/09/05 09:34:20;;;;;;;5.10;3.33;;;;;;;20.97;48.60;96014.53;5092332;28;20737;-85
2022/09/05 09:37:11;;;;;;;6.30;3.47;;;;;;;21.36;48.10;96005.44;5091510;28;20032;-85
2022/09/05 09:40:09;;;;;;;4.82;3.60;;;;;;;21.43;48.40;96008.44;5091332;28;20040;-86
2022/09/05 09:42:49;;;;;;;4.90;3.65;;;;;;;21.60;48.67;96006.78;5079472;28;20494;-86
2022/09/05 09:45:21;;;;;;;5.22;3.10;;;;;;;21.71;48.69;95997.22;5084470;28;20522;-86
2022/09/05 09:48:08;;;;;;;4.15;3.30;;;;;;;21.68;49.73;96003.25;5093031;28;20118;-87
2022/09/05 09:50:56;;;;;;;3.95;3.45;;;;;;;21.51;47.72;95994.09;5088717;28;20417;-87
2022/09/05 09:53:52;;;;;;;4.93;3.75;;;;;;;21.28;48.41;95938.81;5108937;27;20104;-86
2022/09/05 09:56:59;;;;;;;5.70;3.80;;;;;;;21.98;47.48;95977.88;5097766;27;20032;-85
2022/09/05 09:59:46;;;;;;;4.70;3.72;;;;;;;22.77;44.79;95981.66;5074481;28;20040;-86
2022/09/05 10:02:39;;;;;;;4.07;3.45;;;;;;;24.05;43.08;95976.75;5079968;28;20039;-86
2022/09/05 10:05:42;;;;;;;3.58;3.13;;;;;;;25.54;40.87;95975.59;5082695;28;20618;-86
2022/09/05 10:08:30;;;;;;;5.57;2.83;;;;;;;26.54;36.90;95967.88;5082339;28;20134;-87
2022/09/05 10:11:18;;;;;;;3.40;2.88;;;;;;;27.04;34.96;95968.91;5077572;28;20027;-87
2022/09/05 10:14:18;;;;;;;5.65;3.28;;;;;;;28.01;33.88;95962.03;5105081;28;20027;-87
2022/09/05 10:16:52;;;;;;;3.85;2.97;;;;;;;29.09;32.22;95963.94;5082356;28;20032;-86
2022/09/05 10:19:40;;;;;;;3.58;2.70;;;;;;;30.01;31.48;95964.06;5077948;28;20808;-86
2022/09/05 10:22:33;;;;;;;3.75;2.58;;;;;;;30.83;31.53;95957.13;5106308;28;20039;-86
2022/09/05 10:25:06;;;;;;;3.83;3.00;;;;;;;31.37;29.19;95952.63;5100526;28;20075;-86
2022/09/05 10:28:04;;;;;;;5.68;3.08;;;;;;;31.76;27.89;95939.78;5091780;28;20038;-86
2022/09/05 10:30:57;;;;;;;2.47;2.28;;;;;;;30.92;28.09;95721.25;5077158;28;20374;-87
2022/09/05 10:33:28;;;;;;;4.05;2.30;;;;;;;32.72;26.00;95938.88;5105211;27;20739;-85
2022/09/05 10:36:17;;;;;;;3.20;2.60;;;;;;;33.02;24.98;95933.66;5092549;28;20421;-85
2022/09/05 10:38:45;;;;;;;4.82;2.42;;;;;;;32.61;25.90;95858.47;5079282;28;20039;-86
2022/09/05 10:41:14;;;;;;;3.47;2.55;;;;;;;32.85;26.02;95872.13;5092553;28;20477;-86
2022/09/05 10:44:01;;;;;;;3.58;2.70;;;;;;;33.54;26.98;95934.53;5109326;28;20034;-86
2022/09/05 10:46:45;;;;;;;4.97;2.65;;;;;;;33.24;26.80;95926.09;5100886;28;20035;-86
2022/09/05 10:49:14;;;;;;;4.50;2.30;;;;;;;31.19;26.91;95691.53;5082913;28;20115;-86
2022/09/05 10:52:05;;;;;;;4.63;2.53;;;;;;;32.04;26.80;95889.59;5091779;28;20587;-86
2022/09/05 10:54:54;;;;;;;8.57;2.67;;;;;;;31.50;27.38;95920.94;5090907;28;20468;-85
2022/09/05 10:57:55;;;;;;;3.17;2.30;;;;;;;30.85;29.10;95930.16;5073141;28;20040;-85
2022/09/05 11:00:51;;;;;;;5.53;2.90;;;;;;;30.39;30.08;95926.38;5099315;28;20069;-86
2022/09/05 11:03:29;;;;;;;4.68;2.97;;;;;;;29.00;31.31;95812.47;5077657;28;20040;-85
2022/09/05 11:06:04;;;;;;;5.63;2.72;;;;;;;28.76;32.68;95893.75;5069154;28;20036;-85
2022/09/05 11:08:50;;;;;;;3.38;2.67;;;;;;;27.53;32.03;95821.94;5084420;28;20518;-86
2022/09/05 11:11:23;;;;;;;3.88;2.83;;;;;;;27.52;33.59;95872.09;5113384;28;20030;-85
2022/09/05 11:13:51;;;;;;;3.03;2.42;;;;;;;27.68;34.16;95915.59;5085857;28;20153;-85
2022/09/05 11:16:38;;;;;;;2.47;2.28;;;;;;;27.60;35.12;95915.47;5100107;28;20035;-85
2022/09/05 11:19:06;;;;;;;6.65;2.58;;;;;;;28.13;33.85;95914.72;5081357;28;20493;-85
2022/09/05 11:21:50;;;;;;;5.93;2.90;;;;;;;28.73;31.73;95912.78;5098441;28;20112;-86
2022/09/05 11:24:25;;;;;;;3.55;2.78;;;;;;;29.07;30.78;95906.16;5092418;28;20035;-87
2022/09/05 11:27:04;;;;;;;6.80;2.60;;;;;;;28.62;30.14;95800.75;5109554;28;20093;-86
2022/09/05 11:29:57;;;;;;;7.47;2.88;;;;;;;29.60;31.52;95905.13;5092955;28;20028;-87
2022/09/05 11:32:56;;;;;;;9.45;3.67;;;;;;;29.82;30.88;95896.72;5108949;28;20024;-87
2022/09/05 11:35:53;;;;;;;5.20;2.30;;;;;;;29.25;29.75;95845.47;5089378;28;20035;-87
2022/09/05 11:38:48;;;;;;;7.53;2.97;;;;;;;29.73;29.76;95899.00;5093036;28;20512;-87
2022/09/05 11:41:41;;;;;;;4.75;3.03;;;;;;;29.55;30.02;95898.84;5060656;28;20391;-86
2022/09/05 11:44:07;;;;;;;4.68;2.60;;;;;;;29.11;31.23;95907.00;5089404;28;20035;-86
2022/09/05 11:46:56;;;;;;;4.47;2.40;;;;;;;27.85;30.87;95713.38;5076346;28;20033;-87
2022/09/05 11:49:46;;;;;;;6.95;3.28;;;;;;;28.45;30.34;95816.97;5087730;28;20492;-86
2022/09/05 11:52:21;;;;;;;7.82;3.15;;;;;;;29.00;31.09;95902.56;5075388;28;20039;-87
2022/09/05 11:55:20;;;;;;;5.85;3.00;;;;;;;28.64;30.63;95899.44;5094836;28;20023;-87
2022/09/05 11:58:08;;;;;;;5.75;3.22;;;;;;;28.31;31.72;95896.66;5076331;28;20034;-86
2022/09/05 12:00:49;;;;;;;5.38;2.92;;;;;;;27.44;32.42;95873.94;5083217;28;20028;-87
2022/09/05 12:03:51;;;;;;;4.82;3.03;;;;;;;27.72;32.67;95881.78;5110295;28;20027;-86
2022/09/05 12:06:56;;;;;;;8.23;3.55;;;;;;;28.60;31.96;95889.63;5085574;28;20066;-86
2022/09/05 12:09:52;;;;;;;5.57;2.78;;;;;;;29.13;30.61;95882.84;5066218;28;20031;-87
2022/09/05 12:12:34;;;;;;;5.97;3.10;;;;;;;29.60;29.60;95875.84;5054089;28;20226;-87
2022/09/05 12:15:26;;;;;;;5.97;3.08;;;;;;;29.48;29.68;95871.47;5068074;28;20544;-86
2022/09/05 12:18:18;;;;;;;8.80;3.33;;;;;;;29.80;29.25;95868.97;5070389;28;20513;-86
2022/09/05 12:21:17;;;;;;;4.95;2.60;;;;;;;30.53;28.68;95875.28;5068032;28;20092;-87
2022/09/05 12:23:49;;;;;;;4.30;2.70;;;;;;;30.59;28.37;95865.50;5062267;28;20036;-87
2022/09/05 12:26:27;;;;;;;5.88;3.13;;;;;;;30.86;28.93;95865.22;5071202;28;20405;-87
2022/09/05 12:29:18;;;;;;;3.70;3.00;;;;;;;29.96;28.52;95772.22;5079971;28;20064;-87
2022/09/05 12:31:52;;;;;;;;;;;;;;;30.60;28.24;95864.34;5058743;28;20818;-85
2022/09/05 12:34:49;;;;;;;5.10;3.40;;;;;;;31.31;27.58;95864.53;5065397;28;20398;-86
2022/09/05 12:37:43;;;;;;;4.22;2.88;;;;;;;31.72;27.18;95870.44;5072288;28;20028;-86
2022/09/05 12:40:13;;;;;;;3.88;2.92;;;;;;;31.90;26.36;95867.66;5090626;28;20043;-86
2022/09/05 12:42:55;;;;;;;5.20;2.72;;;;;;;31.78;26.33;95862.59;5064280;28;20502;-86
2022/09/05 12:45:46;;;;;;;4.00;2.40;;;;;;;31.93;25.82;95863.34;5064932;28;20040;-86
2022/09/05 12:48:53;;;;;;;5.85;2.97;;;;;;;32.10;25.88;95874.31;5086692;28;20051;-86
2022/09/05 12:51:23;;;;;;;3.80;2.70;;;;;;;31.56;26.29;95848.09;4998557;28;20041;-87